Time;durP1;ratioP1;P1;durP2;ratioP2;P2;SDS_P1;SDS_P2;PMS_P1;PMS_P2;Temp;Humidity;BMP_temperature;BMP_pressure;BME280_temperature;BME280_humidity;BME280_pressure;Samples;Min_cycle;Max_cycle;Signal;HPM_P1;HPM_P2
2024/02/28 00:00:46;;;;;;;76.93;19.95;;;3.70;99.90;;;;;;4963971;28;20034;-76
2024/02/28 00:03:12;;;;;;;58.88;20.08;;;3.70;99.90;;;;;;4977234;28;20443;-76
2024/02/28 00:05:38;;;;;;;126.97;20.00;;;3.70;99.90;;;;;;4973648;28;20488;-76
2024/02/28 00:08:04;;;;;;;84.38;18.63;;;3.70;99.90;;;;;;4967037;28;20042;-76
2024/02/28 00:10:30;;;;;;;89.70;20.95;;;3.70;99.90;;;;;;4981795;28;20458;-77
2024/02/28 00:12:55;;;;;;;158.75;21.35;;;3.70;99.90;;;;;;4959464;28;20053;-76
2024/02/28 00:15:21;;;;;;;98.30;20.55;;;3.70;99.90;;;;;;4975836;28;20027;-76
2024/02/28 00:17:47;;;;;;;127.57;20.35;;;3.60;99.90;;;;;;4980673;28;20019;-76
2024/02/28 00:20:13;;;;;;;102.40;16.95;;;3.60;99.90;;;;;;4967858;28;20034;-77
2024/02/28 00:22:39;;;;;;;62.70;17.92;;;3.60;99.90;;;;;;4963078;28;20033;-76
2024/02/28 00:25:06;;;;;;;70.57;19.13;;;3.50;99.90;;;;;;4979896;28;20124;-76
2024/02/28 00:27:33;;;;;;;52.13;19.58;;;3.50;99.90;;;;;;4958172;28;20023;-76
2024/02/28 00:29:58;;;;;;;69.13;19.60;;;3.50;99.90;;;;;;4967759;28;20218;-76
2024/02/28 00:32:24;;;;;;;50.30;19.45;;;3.60;99.90;;;;;;4961422;28;20027;-76
2024/02/28 00:34:50;;;;;;;53.03;19.13;;;3.60;99.90;;;;;;4973079;28;20393;-76
2024/02/28 00:37:15;;;;;;;95.43;15.73;;;3.60;99.90;;;;;;4977286;28;20584;-76
2024/02/28 00:39:41;;;;;;;86.57;15.45;;;3.60;99.90;;;;;;4980733;28;20046;-75
2024/02/28 00:42:07;;;;;;;80.60;19.17;;;3.50;99.90;;;;;;4967121;28;20034;-76
2024/02/28 00:44:32;;;;;;;101.80;16.05;;;3.40;99.90;;;;;;4974058;28;20023;-76
2024/02/28 00:46:58;;;;;;;82.05;19.05;;;3.40;99.90;;;;;;4972990;28;20026;-76
2024/02/28 00:49:23;;;;;;;41.53;17.23;;;3.40;99.90;;;;;;4974276;28;20027;-77
2024/02/28 00:51:49;;;;;;;64.97;16.70;;;3.40;99.90;;;;;;4980300;28;20027;-76
2024/02/28 00:54:15;;;;;;;75.15;17.40;;;3.40;99.90;;;;;;4980411;28;20026;-77
2024/02/28 00:56:40;;;;;;;63.20;15.77;;;3.40;99.90;;;;;;4983702;28;20101;-76
2024/02/28 00:59:06;;;;;;;63.53;18.88;;;3.30;99.90;;;;;;4974791;28;20080;-76
2024/02/28 01:01:32;;;;;;;50.45;19.27;;;3.30;99.90;;;;;;4976797;28;20019;-76
2024/02/28 01:03:58;;;;;;;58.75;21.73;;;3.40;99.90;;;;;;4979892;28;20030;-76
2024/02/28 01:06:24;;;;;;;62.13;17.33;;;3.40;99.90;;;;;;4967240;28;20571;-76
2024/02/28 01:08:49;;;;;;;51.08;18.10;;;3.40;99.90;;;;;;4962438;28;20026;-76
2024/02/28 01:11:15;;;;;;;56.47;16.83;;;3.40;99.90;;;;;;4973282;28;20126;-76
2024/02/28 01:13:41;;;;;;;44.85;18.73;;;3.40;99.90;;;;;;4956058;28;20038;-77
2024/02/28 01:16:07;;;;;;;61.00;18.45;;;3.40;99.90;;;;;;4980285;28;20030;-76
2024/02/28 01:18:32;;;;;;;97.72;18.58;;;3.30;99.90;;;;;;4976624;28;20023;-76
2024/02/28 01:20:58;;;;;;;71.97;17.35;;;3.30;99.90;;;;;;4972641;28;20507;-76
2024/02/28 01:23:24;;;;;;;63.72;18.42;;;3.30;99.90;;;;;;4977968;28;20043;-76
2024/02/28 01:25:49;;;;;;;107.03;18.35;;;3.20;99.90;;;;;;4970655;28;20162;-76
2024/02/28 01:28:15;;;;;;;77.45;17.17;;;3.20;99.90;;;;;;4980693;28;20025;-76
2024/02/28 01:30:41;;;;;;;61.58;21.67;;;3.20;99.90;;;;;;4981885;28;20053;-76
2024/02/28 01:33:06;;;;;;;48.20;19.73;;;3.20;99.90;;;;;;4971945;28;20038;-77
2024/02/28 01:35:32;;;;;;;58.10;21.17;;;3.20;99.90;;;;;;4959664;28;20047;-76
2024/02/28 01:37:57;;;;;;;54.47;18.02;;;3.20;99.90;;;;;;4968427;28;20019;-76
2024/02/28 01:40:23;;;;;;;51.15;19.33;;;3.30;99.90;;;;;;4978224;28;20046;-76
2024/02/28 01:42:49;;;;;;;48.90;20.35;;;3.30;99.90;;;;;;4980297;28;20117;-76
2024/02/28 01:45:14;;;;;;;40.92;19.80;;;3.30;99.90;;;;;;4959354;28;20332;-76
2024/02/28 01:47:43;;;;;;;55.20;16.85;;;3.30;99.90;;;;;;4978269;28;20026;-76
2024/02/28 01:50:10;;;;;;;50.58;18.98;;;3.40;99.90;;;;;;4972288;28;20475;-76
2024/02/28 01:52:37;;;;;;;46.22;19.88;;;3.40;99.90;;;;;;4982410;28;20193;-76
2024/02/28 01:55:03;;;;;;;53.53;22.40;;;3.40;99.90;;;;;;4956072;28;20030;-76
2024/02/28 01:57:29;;;;;;;80.65;20.15;;;3.40;99.90;;;;;;4953785;28;20396;-76
2024/02/28 01:59:56;;;;;;;92.78;19.13;;;3.50;99.90;;;;;;4980043;28;20022;-77
2024/02/28 02:02:21;;;;;;;83.75;21.40;;;3.40;99.90;;;;;;4969822;28;20026;-77
2024/02/28 02:04:47;;;;;;;149.85;20.80;;;3.40;99.90;;;;;;4978436;28;20380;-77
2024/02/28 02:07:13;;;;;;;105.13;20.38;;;3.50;99.90;;;;;;4976091;28;20023;-76
2024/02/28 02:09:39;;;;;;;67.35;22.45;;;3.50;99.90;;;;;;4982261;28;20480;-76
2024/02/28 02:12:05;;;;;;;160.18;21.38;;;3.50;99.90;;;;;;4965406;28;20093;-76
2024/02/28 02:14:30;;;;;;;126.20;21.65;;;3.50;99.90;;;;;;4975219;28;20602;-77
2024/02/28 02:16:56;;;;;;;121.22;21.38;;;3.40;99.90;;;;;;4978487;28;20039;-76
2024/02/28 02:19:22;;;;;;;96.13;20.60;;;3.40;99.90;;;;;;4983010;28;20050;-76
2024/02/28 02:21:53;;;;;;;115.90;21.45;;;3.40;99.90;;;;;;4978495;28;20026;-76
2024/02/28 02:24:19;;;;;;;88.43;21.70;;;3.40;99.90;;;;;;4960967;28;20047;-76
2024/02/28 02:26:46;;;;;;;86.80;22.35;;;3.40;99.90;;;;;;4985711;28;20373;-77
2024/02/28 02:29:13;;;;;;;199.15;23.45;;;3.40;99.90;;;;;;4982693;28;20546;-76
2024/02/28 02:31:38;;;;;;;140.65;20.52;;;3.40;99.90;;;;;;4962410;28;20041;-76
2024/02/28 02:34:04;;;;;;;57.03;21.75;;;3.40;99.90;;;;;;4977001;28;20027;-77
2024/02/28 02:36:30;;;;;;;63.83;22.02;;;3.40;99.90;;;;;;4973578;28;20049;-76
2024/02/28 02:38:55;;;;;;;78.65;23.02;;;3.40;99.90;;;;;;4978553;28;20500;-76
2024/02/28 02:41:21;;;;;;;152.20;23.30;;;3.50;99.90;;;;;;4971700;28;20023;-76
2024/02/28 02:43:47;;;;;;;66.18;21.63;;;3.60;99.90;;;;;;4980904;28;20045;-76
2024/02/28 02:46:12;;;;;;;165.23;21.27;;;3.60;99.90;;;;;;4982571;28;20038;-76
2024/02/28 02:48:38;;;;;;;149.70;21.45;;;3.50;99.90;;;;;;4974682;28;20022;-76
2024/02/28 02:51:03;;;;;;;164.30;24.15;;;3.50;99.90;;;;;;4980429;28;20026;-76
2024/02/28 02:53:29;;;;;;;69.63;23.35;;;3.50;99.90;;;;;;4959343;28;20023;-76
2024/02/28 02:55:55;;;;;;;106.47;23.38;;;3.50;99.90;;;;;;4957715;28;20447;-77
2024/02/28 02:58:20;;;;;;;116.88;20.65;;;3.50;99.90;;;;;;4976913;28;20030;-76
2024/02/28 03:00:46;;;;;;;83.25;19.90;;;3.50;99.90;;;;;;4982981;28;20105;-77
2024/02/28 03:03:12;;;;;;;170.52;20.60;;;3.50;99.90;;;;;;4978441;28;20038;-77
2024/02/28 03:05:37;;;;;;;95.00;21.70;;;3.50;99.90;;;;;;4973009;28;20364;-76
2024/02/28 03:08:03;;;;;;;87.53;22.08;;;3.40;99.90;;;;;;4958861;28;20408;-77
2024/02/28 03:10:29;;;;;;;77.78;22.05;;;3.40;99.90;;;;;;4974987;28;20058;-77
2024/02/28 03:12:55;;;;;;;97.75;22.77;;;3.40;99.90;;;;;;4960929;28;20105;-77
2024/02/28 03:15:20;;;;;;;70.22;20.90;;;3.40;99.90;;;;;;4976552;28;20054;-77
2024/02/28 03:17:46;;;;;;;52.05;20.30;;;3.40;99.90;;;;;;4964945;28;20145;-77
2024/02/28 03:20:14;;;;;;;127.30;20.63;;;3.40;99.90;;;;;;4963647;28;20433;-77
2024/02/28 03:22:40;;;;;;;186.00;23.70;;;3.40;99.90;;;;;;4976999;28;20027;-77
2024/02/28 03:25:06;;;;;;;99.05;18.58;;;3.40;99.90;;;;;;4968106;28;20050;-77
2024/02/28 03:27:32;;;;;;;104.18;20.70;;;3.40;99.90;;;;;;4982474;28;20030;-77
2024/02/28 03:29:57;;;;;;;163.27;21.40;;;3.30;99.90;;;;;;4968313;28;20114;-77
2024/02/28 03:32:23;;;;;;;181.68;21.73;;;3.30;99.90;;;;;;4969083;28;20034;-76
2024/02/28 03:34:49;;;;;;;168.57;22.02;;;3.20;99.90;;;;;;4981374;28;20019;-76
2024/02/28 03:37:14;;;;;;;187.55;23.00;;;3.10;99.90;;;;;;4968706;28;20027;-77
2024/02/28 03:39:40;;;;;;;122.70;22.05;;;3.10;99.90;;;;;;4982609;28;20085;-76
2024/02/28 03:42:06;;;;;;;123.25;21.45;;;3.00;99.90;;;;;;4968235;28;20030;-75
2024/02/28 03:44:32;;;;;;;117.80;21.20;;;3.00;99.90;;;;;;4975518;28;20424;-77
2024/02/28 03:46:57;;;;;;;168.07;23.58;;;2.90;99.90;;;;;;4964681;28;20031;-76
2024/02/28 03:49:23;;;;;;;107.28;20.23;;;2.90;99.90;;;;;;4969139;28;20376;-76
2024/02/28 03:51:48;;;;;;;94.65;19.60;;;2.90;99.90;;;;;;4964932;28;20023;-77
2024/02/28 03:54:14;;;;;;;131.52;21.25;;;2.90;99.90;;;;;;4981068;28;20023;-77
2024/02/28 03:56:40;;;;;;;193.07;22.88;;;2.80;99.90;;;;;;4968320;28;20045;-77
2024/02/28 03:59:06;;;;;;;166.85;24.17;;;2.80;99.90;;;;;;4963580;28;20535;-77
2024/02/28 04:01:31;;;;;;;189.25;21.58;;;2.80;99.90;;;;;;4977853;28;20046;-77
2024/02/28 04:03:57;;;;;;;139.68;23.48;;;2.80;99.90;;;;;;4973430;28;20023;-76
2024/02/28 04:06:23;;;;;;;77.22;19.52;;;2.80;99.90;;;;;;4979480;28;20488;-76
2024/02/28 04:08:49;;;;;;;199.38;21.88;;;2.80;99.90;;;;;;4980692;28;20052;-77
2024/02/28 04:11:14;;;;;;;64.60;21.17;;;2.70;99.90;;;;;;4967920;28;20019;-77
2024/02/28 04:13:40;;;;;;;162.50;22.90;;;2.70;99.90;;;;;;4979121;28;20443;-77
2024/02/28 04:16:09;;;;;;;113.38;22.65;;;2.80;99.90;;;;;;4955849;28;20330;-77
2024/02/28 04:18:35;;;;;;;102.15;20.08;;;2.80;99.90;;;;;;4960244;28;20023;-77
2024/02/28 04:21:01;;;;;;;180.30;22.52;;;2.80;99.90;;;;;;4985905;28;20550;-77
2024/02/28 04:23:26;;;;;;;78.65;20.23;;;2.90;99.90;;;;;;4976683;28;20048;-77
2024/02/28 04:25:52;;;;;;;129.80;21.48;;;2.90;99.90;;;;;;4972319;28;20514;-77
2024/02/28 04:28:17;;;;;;;144.52;21.70;;;2.90;99.90;;;;;;4956233;28;20026;-77
2024/02/28 04:30:43;;;;;;;133.23;22.42;;;2.90;99.90;;;;;;4975219;28;20087;-77
2024/02/28 04:33:09;;;;;;;122.63;21.10;;;2.90;99.90;;;;;;4980916;28;20464;-76
2024/02/28 04:35:35;;;;;;;167.63;22.23;;;2.80;99.90;;;;;;4977647;28;20045;-77
2024/02/28 04:38:01;;;;;;;100.63;21.42;;;2.90;99.90;;;;;;4970804;28;20114;-77
2024/02/28 04:40:26;;;;;;;131.68;21.60;;;2.80;99.90;;;;;;4975196;28;20037;-76
2024/02/28 04:42:52;;;;;;;148.13;22.08;;;2.80;99.90;;;;;;4973198;28;20396;-76
2024/02/28 04:45:18;;;;;;;108.78;22.73;;;2.70;99.90;;;;;;4975072;28;20476;-77
2024/02/28 04:47:43;;;;;;;113.53;22.23;;;2.70;99.90;;;;;;4964952;28;20030;-77
2024/02/28 04:50:10;;;;;;;103.43;21.38;;;2.60;99.90;;;;;;4972633;28;20495;-77
2024/02/28 04:52:35;;;;;;;124.63;22.92;;;2.60;99.90;;;;;;4983463;28;20447;-77
2024/02/28 04:55:01;;;;;;;176.73;26.08;;;2.60;99.90;;;;;;4956599;28;20481;-77
2024/02/28 04:57:27;;;;;;;87.45;22.15;;;2.60;99.90;;;;;;4980925;28;20117;-77
2024/02/28 04:59:53;;;;;;;85.75;22.83;;;2.60;99.90;;;;;;4977342;28;20022;-77
2024/02/28 05:02:21;;;;;;;116.05;20.90;;;2.60;99.90;;;;;;4973054;28;20050;-77
2024/02/28 05:04:47;;;;;;;59.90;20.50;;;2.70;99.90;;;;;;4977305;28;20026;-77
2024/02/28 05:07:13;;;;;;;93.70;20.73;;;2.60;99.90;;;;;;4980891;28;20447;-77
2024/02/28 05:09:38;;;;;;;69.13;23.48;;;2.60;99.90;;;;;;4973931;28;20031;-77
2024/02/28 05:12:04;;;;;;;98.22;21.95;;;2.60;99.90;;;;;;4974223;28;20026;-77
2024/02/28 05:14:30;;;;;;;85.78;21.20;;;2.70;99.90;;;;;;4967149;28;20412;-76
2024/02/28 05:16:55;;;;;;;73.82;21.25;;;2.70;99.90;;;;;;4980813;28;20118;-77
2024/02/28 05:19:21;;;;;;;68.05;18.52;;;2.60;99.90;;;;;;4969487;28;20108;-78
2024/02/28 05:21:48;;;;;;;93.60;19.67;;;2.60;99.90;;;;;;4967494;28;20050;-76
2024/02/28 05:24:14;;;;;;;85.68;18.90;;;2.60;99.90;;;;;;4962793;28;20034;-76
2024/02/28 05:26:40;;;;;;;114.82;22.13;;;2.60;99.90;;;;;;4967294;28;20078;-76
2024/02/28 05:29:05;;;;;;;66.00;20.00;;;2.50;99.90;;;;;;4966090;28;20027;-75
2024/02/28 05:31:33;;;;;;;89.07;18.98;;;2.50;99.90;;;;;;4980799;28;20097;-79
2024/02/28 05:33:59;;;;;;;103.70;20.73;;;2.50;99.90;;;;;;4966790;28;20026;-78
2024/02/28 05:36:30;;;;;;;95.75;20.85;;;2.50;99.90;;;;;;4981052;28;20022;-76
2024/02/28 05:38:57;;;;;;;94.43;19.13;;;2.50;99.90;;;;;;4966010;28;20502;-76
2024/02/28 05:41:23;;;;;;;70.35;20.50;;;2.50;99.90;;;;;;4963127;28;20031;-76
2024/02/28 05:43:49;;;;;;;103.03;17.48;;;2.40;99.90;;;;;;4963683;28;20019;-75
2024/02/28 05:46:16;;;;;;;67.10;20.75;;;2.40;99.90;;;;;;4970927;28;20026;-79
2024/02/28 05:48:43;;;;;;;50.67;17.83;;;2.40;99.90;;;;;;4959136;28;20041;-75
2024/02/28 05:51:10;;;;;;;78.60;21.08;;;2.40;99.90;;;;;;4977645;28;20160;-75
2024/02/28 05:53:35;;;;;;;65.22;19.10;;;2.40;99.90;;;;;;4970418;28;20046;-76
2024/02/28 05:56:02;;;;;;;51.63;19.52;;;2.40;99.90;;;;;;4978048;28;20026;-76
2024/02/28 05:58:28;;;;;;;88.07;20.70;;;2.40;99.90;;;;;;4978448;28;20099;-76
2024/02/28 06:00:54;;;;;;;111.10;19.98;;;2.40;99.90;;;;;;4985079;28;20039;-78
2024/02/28 06:03:19;;;;;;;95.78;19.52;;;2.40;99.90;;;;;;4982465;28;20454;-76
2024/02/28 06:05:46;;;;;;;61.17;15.85;;;2.40;99.90;;;;;;4976604;28;20019;-76
2024/02/28 06:08:12;;;;;;;105.22;18.17;;;2.40;99.90;;;;;;4982082;28;20026;-76
2024/02/28 06:13:42;;;;;;;;;;;2.30;99.90;;;;;;5013145;28;20074;-91
2024/02/28 06:16:13;;;;;;;48.03;16.70;;;2.30;99.90;;;;;;4997785;28;19927;-92
2024/02/28 06:18:39;;;;;;;48.83;17.05;;;2.30;99.90;;;;;;4997912;28;20076;-91
2024/02/28 06:21:04;;;;;;;50.55;15.20;;;2.30;99.90;;;;;;5014752;28;20113;-93
2024/02/28 06:23:30;;;;;;;74.63;15.48;;;2.30;99.90;;;;;;4997534;28;20021;-95
2024/02/28 06:25:57;;;;;;;47.85;18.00;;;2.30;99.90;;;;;;5014057;28;20030;-93
2024/02/28 06:28:22;;;;;;;31.27;15.55;;;2.30;99.90;;;;;;5014658;28;20042;-93
2024/02/28 06:30:48;;;;;;;54.63;16.00;;;2.40;99.90;;;;;;5001004;28;20105;-94
2024/02/28 06:33:14;;;;;;;54.00;16.80;;;2.40;99.90;;;;;;4995766;28;20026;-92
2024/02/28 06:35:40;;;;;;;49.53;15.55;;;2.30;99.90;;;;;;5013567;28;20022;-92
2024/02/28 06:38:07;;;;;;;36.83;16.23;;;2.30;99.90;;;;;;5014767;28;20179;-92
2024/02/28 06:40:33;;;;;;;36.33;16.92;;;2.30;99.90;;;;;;4997048;28;20040;-92
2024/02/28 06:42:59;;;;;;;40.55;17.52;;;2.30;99.90;;;;;;5014501;28;20029;-93
2024/02/28 06:45:25;;;;;;;43.83;17.60;;;2.30;99.90;;;;;;5013691;28;20029;-92
2024/02/28 06:47:51;;;;;;;40.28;17.00;;;2.30;99.90;;;;;;5013840;28;20025;-93
2024/02/28 06:50:17;;;;;;;39.45;18.85;;;2.30;99.90;;;;;;4995528;28;20049;-93
2024/02/28 06:52:43;;;;;;;31.58;18.08;;;2.30;99.90;;;;;;4996808;28;20125;-93
2024/02/28 06:55:14;;;;;;;35.33;19.65;;;2.30;99.90;;;;;;5013371;28;20029;-92
2024/02/28 06:57:41;;;;;;;36.55;18.33;;;2.40;99.90;;;;;;5013776;28;20080;-93
2024/02/28 07:00:08;;;;;;;38.10;17.48;;;2.40;99.90;;;;;;5013894;28;20026;-93
2024/02/28 07:02:35;;;;;;;35.78;18.58;;;2.40;99.90;;;;;;5017737;28;20022;-94
2024/02/28 07:05:01;;;;;;;33.22;18.25;;;2.40;99.90;;;;;;5000977;28;20034;-92
2024/02/28 07:07:30;;;;;;;35.97;20.25;;;2.40;99.90;;;;;;5021501;28;20046;-92
2024/02/28 07:09:56;;;;;;;34.40;19.30;;;2.50;99.90;;;;;;4999322;28;20041;-94
2024/02/28 07:12:25;;;;;;;34.92;19.02;;;2.50;99.90;;;;;;4995984;28;20565;-92
2024/02/28 07:14:51;;;;;;;35.28;19.90;;;2.50;99.90;;;;;;5000203;28;20097;-92
2024/02/28 07:17:17;;;;;;;33.75;19.30;;;2.60;99.90;;;;;;4984580;28;20058;-93
2024/02/28 07:19:43;;;;;;;35.85;18.80;;;2.60;99.90;;;;;;4994163;28;20023;-92
2024/02/28 07:22:09;;;;;;;35.63;19.13;;;2.60;99.90;;;;;;4985444;28;20516;-92
2024/02/28 07:24:34;;;;;;;37.17;20.58;;;2.60;99.90;;;;;;5004492;28;20703;-94
2024/02/28 07:27:01;;;;;;;34.83;19.00;;;2.70;99.90;;;;;;4995624;28;20487;-95
2024/02/28 07:29:27;;;;;;;36.05;18.00;;;2.70;99.90;;;;;;4982679;28;20121;-94
2024/02/28 07:31:53;;;;;;;35.30;18.60;;;2.70;99.90;;;;;;4980957;28;20042;-93
2024/02/28 07:34:18;;;;;;;30.63;18.48;;;2.70;99.90;;;;;;4994428;28;20034;-91
2024/02/28 07:36:47;;;;;;;35.15;20.23;;;2.80;99.90;;;;;;5003203;28;20169;-92
2024/02/28 07:39:13;;;;;;;41.03;21.75;;;2.80;99.90;;;;;;4987770;28;20492;-92
2024/02/28 07:41:42;;;;;;;39.40;21.48;;;2.70;99.90;;;;;;4989520;28;20030;-92
2024/02/28 07:44:08;;;;;;;49.38;26.40;;;2.80;99.90;;;;;;5017728;28;20448;-92
2024/02/28 07:46:35;;;;;;;49.05;23.10;;;2.80;99.90;;;;;;5012424;28;20048;-94
2024/02/28 07:49:01;;;;;;;46.72;23.50;;;2.80;99.90;;;;;;4988041;28;20033;-93
2024/02/28 07:51:27;;;;;;;46.28;23.95;;;2.80;99.90;;;;;;5014530;28;20025;-94
2024/02/28 07:53:56;;;;;;;50.67;24.50;;;2.90;99.90;;;;;;5014505;28;20113;-93
2024/02/28 07:56:22;;;;;;;53.40;25.58;;;3.00;99.90;;;;;;4997672;28;20033;-92
2024/02/28 07:58:50;;;;;;;56.25;26.83;;;3.00;99.90;;;;;;5014715;28;20140;-94
2024/02/28 08:01:16;;;;;;;52.45;25.35;;;3.00;99.90;;;;;;4995788;28;20121;-94
2024/02/28 08:03:46;;;;;;;53.53;25.27;;;3.10;99.90;;;;;;5013257;28;20033;-91
2024/02/28 08:06:16;;;;;;;52.22;25.02;;;3.20;99.90;;;;;;5010396;28;20026;-93
2024/02/28 08:08:45;;;;;;;49.50;26.00;;;3.20;99.90;;;;;;4997969;28;20037;-95
2024/02/28 08:11:11;;;;;;;52.00;24.70;;;3.30;99.90;;;;;;5013381;28;20021;-93
2024/02/28 08:13:36;;;;;;;55.80;27.10;;;3.30;99.90;;;;;;5012770;28;20056;-92
2024/02/28 08:16:08;;;;;;;51.78;25.70;;;3.30;99.90;;;;;;5012798;28;20026;-93
2024/02/28 08:18:35;;;;;;;48.65;24.25;;;3.40;99.90;;;;;;5025513;28;20022;-92
2024/02/28 08:21:02;;;;;;;51.08;24.58;;;3.40;99.90;;;;;;5012611;28;20022;-92
2024/02/28 08:23:29;;;;;;;52.72;25.73;;;3.40;99.90;;;;;;5024600;28;20014;-92
2024/02/28 08:25:55;;;;;;;64.20;27.25;;;3.50;99.90;;;;;;4994721;28;20132;-93
2024/02/28 08:28:21;;;;;;;54.45;26.17;;;3.50;99.90;;;;;;4997430;28;20117;-92
2024/02/28 08:30:49;;;;;;;48.22;24.85;;;3.50;99.90;;;;;;4995403;28;20072;-92
2024/02/28 08:33:18;;;;;;;53.63;26.33;;;3.60;99.90;;;;;;4991338;28;20030;-94
2024/02/28 08:35:44;;;;;;;57.25;26.65;;;3.60;99.90;;;;;;4977969;28;20046;-93
2024/02/28 08:38:09;;;;;;;49.55;24.35;;;3.70;99.90;;;;;;5011206;28;20025;-93
2024/02/28 08:40:35;;;;;;;49.88;24.90;;;3.60;99.90;;;;;;4991682;28;20105;-93
2024/02/28 08:43:01;;;;;;;51.45;24.98;;;3.70;99.90;;;;;;4995278;28;20034;-93
2024/02/28 08:45:26;;;;;;;49.63;24.42;;;3.70;99.90;;;;;;4995981;28;20022;-93
2024/02/28 08:48:01;;;;;;;55.45;28.27;;;3.80;99.90;;;;;;4996572;28;20112;-92
2024/02/28 08:50:29;;;;;;;50.72;24.65;;;3.80;99.90;;;;;;4993321;28;20523;-92
2024/02/28 08:52:55;;;;;;;51.90;26.05;;;3.80;99.90;;;;;;4994054;28;20030;-93
2024/02/28 08:55:24;;;;;;;47.97;22.77;;;3.90;99.90;;;;;;4992443;28;20029;-93
2024/02/28 08:57:49;;;;;;;49.15;23.92;;;3.90;99.90;;;;;;4997756;28;20034;-92
2024/02/28 09:00:18;;;;;;;54.17;27.17;;;4.00;99.90;;;;;;4989737;28;20026;-92
2024/02/28 09:02:49;;;;;;;48.75;24.60;;;4.00;99.90;;;;;;5007564;28;20026;-92
2024/02/28 09:05:15;;;;;;;51.75;24.20;;;4.00;99.90;;;;;;4996175;28;20109;-92
2024/02/28 09:07:57;;;;;;;55.00;26.33;;;4.10;99.90;;;;;;5018358;28;20072;-92
2024/02/28 09:10:24;;;;;;;46.72;24.50;;;4.20;99.90;;;;;;5000946;28;20038;-92
2024/02/28 09:12:53;;;;;;;51.33;25.48;;;4.20;99.90;;;;;;4994910;28;20051;-91
2024/02/28 09:15:22;;;;;;;53.17;26.58;;;4.30;99.90;;;;;;5000604;28;20075;-94
2024/02/28 09:17:48;;;;;;;54.05;27.67;;;4.30;99.90;;;;;;5017307;28;20022;-95
2024/02/28 09:20:15;;;;;;;49.60;27.35;;;4.30;99.90;;;;;;4999239;28;20065;-95
2024/02/28 09:22:40;;;;;;;52.10;27.75;;;4.40;99.90;;;;;;5003921;28;20533;-96
2024/02/28 09:25:08;;;;;;;53.58;26.52;;;4.40;99.90;;;;;;5018498;28;20026;-96
2024/02/28 09:27:35;;;;;;;53.40;27.25;;;4.40;99.90;;;;;;5010286;28;20051;-94
2024/02/28 09:30:02;;;;;;;52.17;26.10;;;4.50;99.90;;;;;;5017184;28;20033;-95
2024/02/28 09:32:31;;;;;;;58.88;28.60;;;4.50;99.90;;;;;;5017523;28;20085;-91
2024/02/28 09:35:06;;;;;;;47.85;27.10;;;4.50;99.90;;;;;;5002894;28;20321;-96
2024/02/28 09:37:32;;;;;;;51.85;27.15;;;4.50;99.90;;;;;;4995943;28;20041;-94
2024/02/28 09:39:58;;;;;;;49.53;26.60;;;4.50;99.90;;;;;;5016567;28;20033;-94
2024/02/28 09:42:24;;;;;;;61.00;31.17;;;4.60;99.90;;;;;;5014139;28;20014;-95
2024/02/28 09:44:50;;;;;;;47.85;26.88;;;4.60;99.90;;;;;;4997250;28;20026;-94
2024/02/28 09:47:16;;;;;;;49.03;28.83;;;4.60;99.90;;;;;;5003497;28;20034;-95
2024/02/28 09:49:44;;;;;;;52.28;27.35;;;4.70;99.90;;;;;;4996918;28;20034;-95
2024/02/28 09:52:10;;;;;;;53.20;29.70;;;4.70;99.90;;;;;;5016292;28;20036;-95
2024/02/28 09:54:36;;;;;;;49.80;28.02;;;4.70;99.90;;;;;;4999160;28;20031;-95
2024/02/28 09:57:03;;;;;;;50.65;26.83;;;4.80;99.90;;;;;;4995718;28;20556;-95
2024/02/28 09:59:30;;;;;;;52.47;28.48;;;4.80;99.90;;;;;;5018943;28;20487;-96
2024/02/28 10:02:00;;;;;;;46.03;28.30;;;4.80;99.90;;;;;;5022946;28;20029;-95
2024/02/28 10:04:27;;;;;;;49.38;27.25;;;4.90;99.90;;;;;;5007222;28;20106;-94
2024/02/28 10:06:53;;;;;;;49.13;27.30;;;5.00;99.90;;;;;;5031500;28;20022;-96
2024/02/28 10:09:19;;;;;;;48.22;27.83;;;5.00;99.90;;;;;;5016270;28;20137;-95
2024/02/28 10:11:46;;;;;;;49.78;28.77;;;5.00;99.90;;;;;;5019359;28;20038;-94
2024/02/28 10:14:19;;;;;;;49.65;29.20;;;5.10;99.90;;;;;;5001055;28;20030;-94
2024/02/28 10:16:45;;;;;;;51.10;29.15;;;5.10;99.90;;;;;;4997605;28;20191;-94
2024/02/28 10:19:11;;;;;;;45.05;27.27;;;5.10;99.90;;;;;;5007236;28;20084;-95
2024/02/28 10:21:36;;;;;;;43.83;26.23;;;5.20;99.90;;;;;;5018248;28;20019;-94
2024/02/28 10:24:07;;;;;;;44.28;26.40;;;5.20;99.90;;;;;;5016961;28;20018;-95
2024/02/28 10:26:44;;;;;;;45.78;27.23;;;5.20;99.90;;;;;;5024860;28;20036;-96
2024/02/28 10:29:11;;;;;;;49.05;28.77;;;5.20;99.90;;;;;;5000083;28;20045;-95
2024/02/28 10:31:37;;;;;;;44.53;27.77;;;5.20;99.90;;;;;;5013152;28;20124;-95
2024/02/28 10:34:10;;;;;;;45.67;27.52;;;5.30;99.90;;;;;;5003581;28;20030;-95
2024/02/28 10:36:40;;;;;;;47.33;26.80;;;5.30;99.90;;;;;;5001485;28;20052;-96
2024/02/28 10:39:09;;;;;;;46.00;26.63;;;5.30;99.90;;;;;;5015969;28;20246;-95
2024/02/28 10:41:36;;;;;;;45.75;26.48;;;5.30;99.90;;;;;;5000987;28;20064;-95
2024/02/28 10:44:02;;;;;;;44.85;27.67;;;5.30;99.90;;;;;;5011930;28;20060;-94
2024/02/28 10:46:28;;;;;;;44.42;26.75;;;5.30;99.90;;;;;;4997453;28;20037;-95
2024/02/28 10:48:57;;;;;;;44.28;28.42;;;5.40;99.90;;;;;;4998638;28;20037;-93
2024/02/28 10:51:33;;;;;;;45.85;27.98;;;5.50;99.90;;;;;;5002029;28;20057;-95
2024/02/28 10:54:11;;;;;;;46.88;28.38;;;5.50;99.90;;;;;;4998913;28;20485;-94
2024/02/28 10:56:38;;;;;;;45.45;27.48;;;5.50;99.90;;;;;;5001439;28;20810;-95
2024/02/28 10:59:09;;;;;;;43.17;26.77;;;5.60;99.90;;;;;;4999098;28;20018;-95
2024/02/28 11:01:43;;;;;;;41.58;25.63;;;5.70;99.90;;;;;;5015409;28;20038;-94
2024/02/28 11:04:11;;;;;;;43.72;27.08;;;5.70;99.90;;;;;;4998945;28;20034;-94
2024/02/28 11:06:55;;;;;;;44.80;27.27;;;5.80;99.90;;;;;;5017423;28;20591;-95
2024/02/28 11:09:25;;;;;;;42.30;26.83;;;5.80;99.90;;;;;;5015619;28;20061;-95
2024/02/28 11:11:51;;;;;;;43.97;26.70;;;5.90;99.90;;;;;;5016123;28;20053;-96
2024/02/28 11:14:21;;;;;;;39.63;25.55;;;5.90;99.90;;;;;;5016093;28;20482;-94
2024/02/28 11:16:54;;;;;;;43.10;26.15;;;5.90;99.90;;;;;;5017577;28;20030;-96
2024/02/28 11:19:28;;;;;;;46.78;27.55;;;5.90;99.90;;;;;;5002812;28;20030;-95
2024/02/28 11:22:03;;;;;;;45.75;25.65;;;6.00;99.90;;;;;;5020646;28;20030;-96
2024/02/28 11:24:31;;;;;;;42.70;26.85;;;6.00;99.90;;;;;;5003620;28;20038;-96
2024/02/28 11:26:57;;;;;;;41.55;26.25;;;6.10;99.90;;;;;;5002213;28;20087;-95
2024/02/28 11:29:28;;;;;;;44.35;25.20;;;6.20;99.90;;;;;;5002041;28;20026;-96
2024/02/28 11:31:57;;;;;;;42.70;25.70;;;6.20;99.90;;;;;;5005737;28;20089;-95
2024/02/28 11:34:23;;;;;;;41.80;25.67;;;6.30;99.90;;;;;;4994491;28;20404;-95
2024/02/28 11:36:50;;;;;;;44.63;26.00;;;6.40;99.90;;;;;;5001317;28;20053;-94
2024/02/28 11:39:17;;;;;;;49.45;28.58;;;6.50;99.90;;;;;;5010463;28;20030;-95
2024/02/28 11:41:46;;;;;;;45.65;30.35;;;6.50;99.90;;;;;;4993112;28;20494;-95
2024/02/28 11:44:16;;;;;;;48.55;29.63;;;6.60;99.90;;;;;;4999115;28;20109;-95
2024/02/28 11:46:49;;;;;;;45.77;29.60;;;6.70;99.90;;;;;;5016994;28;20033;-95
2024/02/28 11:49:18;;;;;;;44.63;27.60;;;6.70;99.90;;;;;;5005417;28;20041;-94
2024/02/28 11:51:44;;;;;;;43.38;28.23;;;6.80;99.90;;;;;;5007028;28;20057;-95
2024/02/28 11:54:13;;;;;;;41.90;27.13;;;6.80;99.90;;;;;;5009046;28;20034;-95
2024/02/28 11:56:39;;;;;;;40.92;26.20;;;6.90;99.90;;;;;;4993560;28;20030;-95
2024/02/28 11:59:09;;;;;;;48.65;29.52;;;6.90;99.90;;;;;;5015949;28;20029;-95
2024/02/28 12:01:40;;;;;;;42.28;26.70;;;7.00;99.90;;;;;;4998427;28;20010;-95
2024/02/28 12:04:06;;;;;;;42.08;27.58;;;7.10;99.90;;;;;;5015497;28;20029;-95
2024/02/28 12:06:39;;;;;;;43.25;27.58;;;7.00;99.90;;;;;;4996525;28;20526;-95
2024/02/28 12:09:12;;;;;;;38.08;24.33;;;7.10;99.90;;;;;;5014291;28;20034;-95
2024/02/28 12:11:40;;;;;;;43.97;26.73;;;7.20;99.90;;;;;;4998503;28;20030;-95
2024/02/28 12:14:08;;;;;;;42.90;27.83;;;7.20;99.90;;;;;;4997064;28;20025;-94
2024/02/28 12:16:44;;;;;;;41.38;26.25;;;7.30;99.90;;;;;;5005390;28;20125;-95
2024/02/28 12:19:11;;;;;;;40.35;24.48;;;7.40;99.90;;;;;;5015211;28;20029;-94
2024/02/28 12:21:40;;;;;;;40.05;24.45;;;7.50;99.90;;;;;;5015209;28;20139;-94
2024/02/28 12:24:09;;;;;;;35.88;23.80;;;7.50;99.90;;;;;;5016902;28;20410;-95
2024/02/28 12:26:35;;;;;;;42.25;24.48;;;7.50;99.90;;;;;;4989149;28;20022;-96
2024/02/28 12:29:01;;;;;;;37.60;23.98;;;7.60;99.90;;;;;;5001403;28;20026;-96
2024/02/28 12:31:32;;;;;;;38.50;24.48;;;7.70;99.90;;;;;;5007602;28;20018;-95
2024/02/28 12:34:03;;;;;;;30.95;21.20;;;7.70;99.90;;;;;;5004979;28;20475;-95
2024/02/28 12:36:30;;;;;;;35.50;23.35;;;7.70;99.90;;;;;;5020247;28;20029;-95